Terminal Aerodrome Forecast
Issued by NWS

Home | Current Version | Previous Version | Text Only | Print | Product List | Glossary On
Versions: 1 2 3 4 5 6 7 8 9 10 11 12 13
000
FTUS43 KILX 232300 RRA
TAFDEC
TAF
KDEC 232345Z 2400/2424 10007KT P6SM BKN110
     FM240300 12012KT P6SM BKN050
     FM241600 14014KT P6SM VCSH BKN050
     FM242100 16018G30KT P6SM VCTS OVC050CB=

USA.gov is the U.S. government's official web portal to all federal, state and local government web resources and services.